My Meet Scores
Gabby Curry, Phenom Gymnastics - MyMeetScores.com
Top100 | Top Teams | Upcoming Meets | Completed Meets | Latest | Add Scores | Help| Support | Bookmark and Share

Gabby Curry, Phenom Gymnastics
Personal Bests
LevelVault BarsBeamFloorAA
39.4259.700 9.3509.55037.650
49.1009.700 9.7009.70037.700
59.2509.450 9.6009.25037.225
79.0009.650 9.4759.27536.450
Meet Scores
Date Meet Team Session Level Division Vault Bars Beam Floor AA
2020-03-06 2020 Flip'r Invitational Phenom Gymnastics 4 7 JR B 8.700 11 9.125 6 9.475 3 9.150 14 36.450 6
2020-02-21 Kinetic Classic Phenom Gymnastics 02 7 Younger 8.550 39T 9.650 4 9.250 14T 8.450 43 35.900 27
2020-01-31 Big Chill Phenom Gymnastics 1 7 12 & 13 8.750 4T 9.250 6 9.450 5 8.700 10 36.150 8
2020-01-17 2020 Bravo Classic Phenom Gymnastics 9B 7 Jr 9.000 8 9.200 7 9.400 6 8.600 15 36.200 7T
2019-12-20 Aspire Classic - 2019 Phenom Gymnastics 2B 7 Middle 8.675 16 9.250 13 9.125 11 9.275 14T 36.325 13
2019-12-13 MEGA Magic Classic 2019 Phenom Gymnastics 4A 7 Jr B 8.975 8 8.800 8 9.475 1 9.100 9T 36.350 3
2019-03-22 Illinois Gymnastics State Championships Phenom Gymnastics 1 5 JR E 9.250 11 9.175 6 9.150 5T 9.250 7 36.825 5
2019-03-01 NGCD Academy's 2019 Flip'r Invitational Phenom Gymnastics 11 5 Jr A 9.175 7T 9.450 2 9.600 1 9.000 9T 37.225 2
2019-02-15 Big ClassicBIG CLASSIC Phenom Gymnastics 5B 5 Child C 8.900 3 9.025 4T 9.550 1 9.125 2 36.600 3
2019-01-25 King Arthur Invitational Phenom Gymnastics 7 5 SR A 8.950 4 9.175 3 8.900 6T 7.250 15 34.275 9
2019-01-18 2019 Bravo Classic Phenom Gymnastics 2A 5 Jr 8.475 18 9.100 8T 9.550 2T 8.700 23T 35.825 11
2018-12-14 2018 Aspire Classic Phenom Gymnastics 8A 5 Middle 9.050 12T 8.725 11T 9.125 9 7.600 23 34.500 20
2018-12-07 2018 MEGA Magic Classic Phenom Gymnastics B1 5 Jr B 8.700 12T 8.950 4T 9.000 4 8.050 15 34.700 12
2018-03-08 Level 4 & 5 State Phenom Gymnastics All 4 Yh E 9.100 3T 9.350 3T 9.700 1 9.550 2 37.700 1
2018-03-02 2018 Flip'r Invitational Phenom Gymnastics 6 4 Jr B Age 9 B 3/5/08- 8.975 7 9.400 1 9.400 3 9.400 3 37.175 3
2018-02-16 Big Classic Phenom Gymnastics 10B 4 Child B 8.700 5 9.500 3T 9.425 4 9.650 2 37.275 3
2018-01-19 2018 Bravo Classic Phenom Gymnastics 12B 4 Jr 8.450 11T 9.425 4 9.400 7T 9.700 2T 36.975 5
2017-12-15 2017 Aspire Classic Phenom Gymnastics 3 4 Sr A 8.150 21 9.600 5 9.525 1 8.900 7 36.175 8
2017-12-08 MEGA Magic Classic 2017 Phenom Gymnastics 1A 4 Jr B 7.975 19 9.150 8T 9.625 2 9.175 6 35.925 8
2017-11-16 Paul Hamm Thanksgiving Classic - Women Phenom Gymnastics 7 4 Middle 8.700 14T 9.700 8T 9.250 13T 9.575 3 37.225 6
2017-03-30 2017 Illinois Level 3 & 5 State Premier Gymnastics Academy West All 3 Yh F 9.275 17T 9.700 1 9.125 10T 9.550 2 37.650 3
2017-02-18 2017 Great Western Invitational Women's Premier Gymnastics Academy West 1 3 Pony 8.850 13 9.600 2 9.000 3T 9.550 1 37.000 2
2017-01-27 2017 UGA Invitational Premier Gymnastics Academy West B6 3 Sr A 8.550 12 9.250 2 9.350 3 9.250 5 36.400 5
2017-01-13 St Jude Benefit Meet Premier Gymnastics Academy West 9A 3 Jr C 8.925 13T 9.300 5 8.300 14 9.400 4 35.925 6
2016-12-16 2016 Aspire Classic Premier Gymnastics Academy West 12 3 Middle 8.775 14 9.350 4 8.625 7 9.475 1T 36.225 6
2016-12-09 St. Nick Invite Premier Gymnastics Academy West 6 3 All 9.425 3 9.425 1 8.950 5T 9.450 2 37.250 1
2016-11-19 Paul Hamm Thanksgiving Classic - 2016 Girls Premier Gymnastics Academy West 5 3 9+yrs 9.200 6T 9.125 4T 8.750 9 9.200 3T 36.275 4
Get your scores on
a t-shirt, pin, or hoodie

www.lazysuits.com